createdAt,value
2022-08-17T00:00:33.268Z,32.17
2022-08-17T00:03:17.370Z,30.00
2022-08-17T00:05:49.133Z,28.08
2022-08-17T00:08:18.692Z,30.50
2022-08-17T00:10:47.271Z,30.00
2022-08-17T00:13:19.309Z,29.92
2022-08-17T00:15:46.639Z,31.73
2022-08-17T00:19:01.850Z,32.00
2022-08-17T00:21:03.323Z,32.55
2022-08-17T00:23:30.749Z,33.38
2022-08-17T00:25:57.768Z,34.65
2022-08-17T00:28:25.248Z,34.00
2022-08-17T00:30:53.829Z,34.88
2022-08-17T00:33:25.283Z,33.63
2022-08-17T00:35:53.562Z,35.20
2022-08-17T00:38:21.687Z,32.05
2022-08-17T00:40:59.027Z,35.05
2022-08-17T00:43:28.931Z,31.10
2022-08-17T00:45:56.535Z,32.13
2022-08-17T00:48:29.952Z,34.08
2022-08-17T00:51:37.221Z,29.33
2022-08-17T00:56:43.120Z,26.83
2022-08-17T00:59:11.495Z,29.30
2022-08-17T01:01:39.015Z,32.65
2022-08-17T01:04:07.438Z,31.35
2022-08-17T01:06:34.669Z,30.30
2022-08-17T01:09:03.562Z,27.80
2022-08-17T01:11:32.034Z,27.55
2022-08-17T01:13:58.933Z,27.40
2022-08-17T01:16:28.608Z,25.63
2022-08-17T01:18:59.550Z,23.80
2022-08-17T01:21:34.705Z,23.85
2022-08-17T01:24:02.459Z,25.02
2022-08-17T01:26:31.305Z,22.80
2022-08-17T01:28:58.356Z,26.70
2022-08-17T01:31:30.354Z,25.27
2022-08-17T01:34:00.255Z,26.27
2022-08-17T01:36:28.911Z,27.33
2022-08-17T01:38:55.780Z,30.85
2022-08-17T01:41:24.260Z,28.63
2022-08-17T01:44:04.413Z,30.70
2022-08-17T01:46:35.351Z,29.45
2022-08-17T01:49:06.684Z,29.08
2022-08-17T01:51:33.866Z,30.73
2022-08-17T01:54:05.558Z,28.33
2022-08-17T01:56:35.160Z,29.33
2022-08-17T01:59:02.636Z,28.05
2022-08-17T02:01:31.959Z,28.30
2022-08-17T02:04:01.360Z,27.20
2022-08-17T02:06:45.080Z,27.48
2022-08-17T02:09:22.304Z,27.42
2022-08-17T02:11:54.039Z,27.90
2022-08-17T02:14:21.619Z,29.52
2022-08-17T02:16:48.479Z,27.23
2022-08-17T02:19:17.256Z,29.13
2022-08-17T02:21:48.126Z,27.27
2022-08-17T02:24:58.306Z,29.35
2022-08-17T02:27:10.100Z,28.20
2022-08-17T02:29:37.327Z,28.88
2022-08-17T02:32:05.086Z,28.13
2022-08-17T02:34:32.543Z,30.45
2022-08-17T02:36:59.472Z,28.88
2022-08-17T02:39:26.338Z,30.38
2022-08-17T02:42:01.119Z,29.08
2022-08-17T02:44:38.873Z,30.30
2022-08-17T02:47:08.825Z,29.15
2022-08-17T02:49:35.811Z,29.33
2022-08-17T02:52:05.544Z,31.00
2022-08-17T02:54:39.323Z,29.77
2022-08-17T02:59:34.609Z,26.50
2022-08-17T03:02:03.870Z,29.90
2022-08-17T03:04:31.301Z,30.27
2022-08-17T03:07:02.837Z,30.75
2022-08-17T03:09:29.680Z,31.08
2022-08-17T03:12:08.552Z,32.15
2022-08-17T03:14:41.749Z,29.77
2022-08-17T03:17:10.139Z,30.40
2022-08-17T03:19:42.923Z,32.03
2022-08-17T03:22:36.427Z,28.98
2022-08-17T03:24:58.007Z,27.80
2022-08-17T03:27:24.878Z,29.45
2022-08-17T03:29:51.716Z,29.85
2022-08-17T03:32:20.781Z,26.35
2022-08-17T03:34:47.875Z,27.20
2022-08-17T03:37:14.896Z,28.95
2022-08-17T03:39:41.874Z,27.67
2022-08-17T03:42:31.572Z,26.67
2022-08-17T03:45:00.337Z,27.35
2022-08-17T03:47:45.986Z,27.58
2022-08-17T03:50:32.709Z,25.83
2022-08-17T03:53:19.220Z,26.60
2022-08-17T03:56:04.535Z,26.75
2022-08-17T03:58:31.453Z,25.88
2022-08-17T04:00:58.544Z,26.48
2022-08-17T04:03:25.511Z,28.60
2022-08-17T04:05:52.369Z,28.45
2022-08-17T04:08:19.244Z,28.92
2022-08-17T04:10:46.562Z,28.02
2022-08-17T04:13:14.053Z,29.30
2022-08-17T04:15:41.054Z,31.02
2022-08-17T04:18:08.015Z,32.67
2022-08-17T04:20:38.033Z,31.45
2022-08-17T04:23:10.196Z,30.75
2022-08-17T04:25:39.865Z,31.50
2022-08-17T04:28:09.027Z,29.85
2022-08-17T04:30:45.303Z,30.02
2022-08-17T04:33:24.171Z,28.70
2022-08-17T04:35:54.619Z,30.38
2022-08-17T04:38:24.570Z,32.22
2022-08-17T04:41:10.937Z,32.30
2022-08-17T04:43:39.886Z,29.50
2022-08-17T04:46:13.044Z,32.83
2022-08-17T04:48:45.815Z,31.10
2022-08-17T04:51:16.881Z,32.17
2022-08-17T04:53:49.065Z,33.33
2022-08-17T04:56:21.727Z,31.33
2022-08-17T04:58:51.469Z,29.83
2022-08-17T05:01:24.077Z,29.55
2022-08-17T05:03:52.851Z,31.83
2022-08-17T05:06:20.257Z,33.05
2022-08-17T05:08:47.179Z,30.60
2022-08-17T05:11:14.514Z,31.25
2022-08-17T05:13:41.443Z,31.63
2022-08-17T05:16:09.252Z,32.60
2022-08-17T05:18:38.848Z,31.70
2022-08-17T05:21:07.009Z,31.52
2022-08-17T05:23:41.822Z,29.92
2022-08-17T05:26:22.591Z,32.88
2022-08-17T05:28:57.220Z,33.40
2022-08-17T05:31:27.241Z,31.73
2022-08-17T05:33:54.129Z,33.90
2022-08-17T05:36:37.919Z,34.40
2022-08-17T05:39:08.137Z,31.35
2022-08-17T05:41:40.614Z,33.92
2022-08-17T05:44:07.566Z,34.25
2022-08-17T05:46:39.634Z,26.85
2022-08-17T05:49:08.377Z,26.58
2022-08-17T05:51:41.245Z,22.48
2022-08-17T05:54:26.817Z,23.08
2022-08-17T05:57:03.104Z,20.85
2022-08-17T05:59:30.611Z,23.30
2022-08-17T06:02:09.495Z,22.02
2022-08-17T06:05:00.948Z,24.08
2022-08-17T06:07:46.194Z,27.98
2022-08-17T06:10:35.829Z,28.73
2022-08-17T06:13:23.365Z,27.35
2022-08-17T06:16:04.768Z,29.42
2022-08-17T06:19:02.505Z,24.70
2022-08-17T06:21:35.024Z,25.77
2022-08-17T06:24:25.266Z,27.38
2022-08-17T06:26:53.988Z,27.33
2022-08-17T06:29:23.911Z,27.83
2022-08-17T06:31:51.937Z,28.50
2022-08-17T06:34:21.755Z,28.80
2022-08-17T06:37:19.036Z,29.00
2022-08-17T06:40:04.350Z,30.38
2022-08-17T06:42:55.018Z,27.45
2022-08-17T06:45:37.833Z,27.50
2022-08-17T06:48:09.318Z,25.67
2022-08-17T06:50:47.114Z,27.90
2022-08-17T06:53:26.349Z,29.98
2022-08-17T06:56:23.674Z,27.15
2022-08-17T06:58:50.854Z,23.70
2022-08-17T07:01:24.971Z,24.05
2022-08-17T07:04:23.598Z,24.45
2022-08-17T07:06:50.420Z,23.40
2022-08-17T07:09:37.909Z,23.92
2022-08-17T07:12:19.509Z,23.10
2022-08-17T07:14:52.876Z,25.98
2022-08-17T07:17:22.031Z,24.13
2022-08-17T07:20:15.025Z,24.15
2022-08-17T07:22:59.421Z,24.65
2022-08-17T07:25:27.592Z,24.90
2022-08-17T07:28:00.326Z,23.90
2022-08-17T07:30:45.507Z,23.25
2022-08-17T07:33:20.366Z,24.15
2022-08-17T07:35:48.512Z,25.23
2022-08-17T07:38:25.240Z,25.35
2022-08-17T07:41:02.842Z,25.75
2022-08-17T07:43:38.062Z,25.90
2022-08-17T07:46:37.800Z,24.38
2022-08-17T07:49:07.622Z,23.17
2022-08-17T07:51:39.808Z,23.92
2022-08-17T07:54:15.613Z,22.30
2022-08-17T07:56:49.695Z,23.55
2022-08-17T07:59:23.432Z,23.60
2022-08-17T08:01:58.096Z,22.80
2022-08-17T08:07:25.692Z,19.70
2022-08-17T08:10:15.761Z,20.13
2022-08-17T08:12:42.600Z,19.45
2022-08-17T08:15:25.715Z,21.02
2022-08-17T08:18:02.094Z,20.55
2022-08-17T08:20:53.217Z,22.30
2022-08-17T08:23:33.505Z,20.63
2022-08-17T08:26:00.325Z,21.08
2022-08-17T08:28:36.408Z,21.17
2022-08-17T08:31:25.327Z,20.70
2022-08-17T08:33:59.555Z,22.25
2022-08-17T08:36:57.018Z,23.15
2022-08-17T08:39:29.949Z,21.48
2022-08-17T08:42:13.130Z,21.92
2022-08-17T08:45:08.377Z,23.95
2022-08-17T08:48:46.160Z,23.27
2022-08-17T08:51:37.242Z,23.40
2022-08-17T08:54:33.587Z,21.58
2022-08-17T08:57:26.790Z,23.08
2022-08-17T09:00:17.496Z,24.02
2022-08-17T09:02:56.480Z,25.55
2022-08-17T09:05:36.996Z,25.58
2022-08-17T09:08:29.903Z,25.33
2022-08-17T09:11:02.492Z,23.10
2022-08-17T09:14:28.210Z,25.23
2022-08-17T09:17:04.608Z,23.75
2022-08-17T09:19:48.390Z,25.73
2022-08-17T09:22:35.874Z,25.13
2022-08-17T09:25:12.629Z,24.90
2022-08-17T09:28:00.946Z,27.00
2022-08-17T09:30:37.900Z,24.63
2022-08-17T09:33:11.499Z,24.23
2022-08-17T09:35:53.821Z,24.15
2022-08-17T09:38:31.761Z,25.10
2022-08-17T09:41:31.277Z,24.38
2022-08-17T09:44:22.784Z,24.70
2022-08-17T09:47:11.104Z,23.48
2022-08-17T09:49:51.439Z,23.08
2022-08-17T09:52:25.126Z,24.83
2022-08-17T09:54:54.822Z,24.48
2022-08-17T09:57:30.220Z,25.73
2022-08-17T10:00:08.324Z,24.30
2022-08-17T10:03:16.410Z,24.67
2022-08-17T10:06:02.702Z,23.67
2022-08-17T10:08:54.109Z,22.42
2022-08-17T10:12:01.065Z,25.25
2022-08-17T10:14:44.302Z,23.70
2022-08-17T10:17:41.719Z,24.35
2022-08-17T10:20:28.367Z,22.15
2022-08-17T10:23:32.367Z,22.88
2022-08-17T10:26:20.562Z,24.05
2022-08-17T10:28:47.888Z,23.33
2022-08-17T10:31:45.662Z,23.23
2022-08-17T10:34:50.463Z,22.02
2022-08-17T10:37:20.267Z,22.40
2022-08-17T10:40:02.641Z,24.30
2022-08-17T10:42:36.894Z,25.20
2022-08-17T10:45:35.442Z,23.92
2022-08-17T10:48:38.321Z,21.98
2022-08-17T10:51:12.831Z,23.25
2022-08-17T10:53:43.492Z,24.30
2022-08-17T10:56:13.313Z,23.90
2022-08-17T10:58:54.869Z,24.05
2022-08-17T11:01:44.440Z,24.60
2022-08-17T11:04:30.159Z,23.85
2022-08-17T11:07:30.600Z,23.67
2022-08-17T11:10:15.406Z,24.08
2022-08-17T11:13:11.120Z,25.05
2022-08-17T11:15:43.797Z,25.58
2022-08-17T11:18:20.485Z,25.25
2022-08-17T11:21:20.499Z,26.27
2022-08-17T11:24:11.683Z,25.15
2022-08-17T11:26:46.342Z,25.20
2022-08-17T11:29:24.779Z,23.83
2022-08-17T11:32:13.070Z,25.88
2022-08-17T11:34:43.525Z,24.70
2022-08-17T11:37:15.751Z,24.55
2022-08-17T11:39:45.677Z,25.95
2022-08-17T11:42:25.618Z,26.75
2022-08-17T11:45:07.455Z,27.38
2022-08-17T11:48:27.932Z,27.40
2022-08-17T11:51:28.465Z,29.83
2022-08-17T11:54:14.749Z,28.63
2022-08-17T11:56:50.800Z,21.35
2022-08-17T11:59:44.990Z,18.35
2022-08-17T12:02:29.931Z,13.95
2022-08-17T12:05:27.458Z,13.15
2022-08-17T12:08:16.555Z,15.02
2022-08-17T12:11:55.661Z,15.25
2022-08-17T12:14:19.208Z,13.03
2022-08-17T12:16:58.712Z,13.48
2022-08-17T12:19:27.755Z,13.10
2022-08-17T12:22:02.328Z,12.40
2022-08-17T12:24:45.403Z,14.98
2022-08-17T12:27:19.586Z,14.70
2022-08-17T12:30:12.239Z,15.10
2022-08-17T12:32:40.756Z,14.13
2022-08-17T12:35:25.355Z,12.77
2022-08-17T12:37:52.883Z,12.35
2022-08-17T12:40:24.229Z,13.93
2022-08-17T12:42:57.832Z,14.68
2022-08-17T12:45:39.798Z,15.00
2022-08-17T12:48:13.240Z,15.73
2022-08-17T12:50:45.144Z,15.23
2022-08-17T12:53:17.601Z,15.07
2022-08-17T12:55:45.426Z,15.52
2022-08-17T12:58:17.536Z,17.20
2022-08-17T13:01:01.925Z,16.63
2022-08-17T13:03:36.302Z,18.00
2022-08-17T13:06:09.620Z,18.75
2022-08-17T13:08:43.201Z,19.35
2022-08-17T13:11:18.634Z,19.17
2022-08-17T13:16:17.388Z,16.48
2022-08-17T13:18:48.694Z,18.80
2022-08-17T13:21:27.014Z,19.00
2022-08-17T13:24:01.463Z,17.77
2022-08-17T13:26:42.186Z,16.27
2022-08-17T13:29:23.375Z,13.45
2022-08-17T13:31:56.644Z,11.93
2022-08-17T13:35:12.090Z,11.07
2022-08-17T13:37:32.906Z,12.98
2022-08-17T13:40:07.955Z,18.05
2022-08-17T13:42:52.296Z,15.88
2022-08-17T13:48:14.577Z,18.75
2022-08-17T13:50:54.823Z,17.70
2022-08-17T13:53:26.579Z,19.20
2022-08-17T13:56:07.420Z,20.08
2022-08-17T13:59:02.804Z,17.52
2022-08-17T14:01:32.827Z,16.73
2022-08-17T14:04:03.092Z,12.57
2022-08-17T14:06:51.379Z,17.33
2022-08-17T14:09:24.247Z,17.95
2022-08-17T14:11:54.210Z,19.77
2022-08-17T14:14:23.354Z,17.77
2022-08-17T14:16:54.240Z,17.10
2022-08-17T14:19:24.485Z,15.30
2022-08-17T14:21:51.765Z,14.20
2022-08-17T14:24:19.872Z,14.95
2022-08-17T14:26:46.768Z,14.77
2022-08-17T14:29:15.530Z,15.57
2022-08-17T14:31:42.909Z,15.13
2022-08-17T14:34:20.787Z,14.75
2022-08-17T14:36:48.461Z,15.57
2022-08-17T14:39:17.495Z,15.90
2022-08-17T14:41:44.954Z,17.05
2022-08-17T14:44:12.657Z,18.08
2022-08-17T14:46:41.078Z,20.00
2022-08-17T14:49:13.060Z,17.20
2022-08-17T14:51:44.003Z,18.27
2022-08-17T14:54:28.774Z,21.27
2022-08-17T14:57:22.440Z,20.45
2022-08-17T14:59:47.153Z,22.10
2022-08-17T15:02:14.012Z,18.52
2022-08-17T15:04:45.477Z,19.67
2022-08-17T15:07:12.648Z,18.75
2022-08-17T15:09:39.686Z,17.55
2022-08-17T15:12:07.271Z,18.45
2022-08-17T15:14:36.973Z,17.55
2022-08-17T15:17:04.283Z,15.95
2022-08-17T15:19:31.143Z,15.30
2022-08-17T15:21:58.005Z,15.57
2022-08-17T15:24:24.854Z,16.92
2022-08-17T15:26:51.720Z,16.35
2022-08-17T15:29:18.588Z,16.27
2022-08-17T15:31:45.472Z,19.80
2022-08-17T15:34:12.348Z,19.27
2022-08-17T15:36:41.406Z,17.52
2022-08-17T15:39:19.601Z,16.15
2022-08-17T15:41:47.396Z,11.32
2022-08-17T15:44:32.361Z,12.13
2022-08-17T15:46:59.563Z,11.52
2022-08-17T15:49:26.380Z,12.93
2022-08-17T15:51:53.753Z,12.23
2022-08-17T15:54:22.707Z,15.27
2022-08-17T15:56:50.793Z,15.63
2022-08-17T15:59:17.924Z,16.30
2022-08-17T16:03:13.203Z,19.65
2022-08-17T16:04:32.100Z,17.42
2022-08-17T16:07:00.026Z,18.80
2022-08-17T16:09:27.607Z,17.45
2022-08-17T16:11:56.284Z,16.00
2022-08-17T16:14:30.326Z,15.85
2022-08-17T16:17:03.215Z,14.70
2022-08-17T16:19:30.125Z,15.07
2022-08-17T16:21:57.029Z,16.17
2022-08-17T16:24:23.873Z,15.50
2022-08-17T16:26:50.894Z,15.60
2022-08-17T16:29:17.981Z,15.10
2022-08-17T16:31:44.854Z,14.93
2022-08-17T16:34:16.934Z,15.65
2022-08-17T16:36:55.507Z,13.95
2022-08-17T16:39:29.200Z,15.05
2022-08-17T16:41:57.592Z,14.23
2022-08-17T16:44:27.556Z,15.05
2022-08-17T16:46:54.442Z,16.10
2022-08-17T16:49:36.156Z,14.07
2022-08-17T16:52:05.986Z,9.45
2022-08-17T16:54:35.629Z,8.80
2022-08-17T16:57:05.245Z,11.52
2022-08-17T16:59:39.618Z,14.65
2022-08-17T17:02:10.740Z,15.40
2022-08-17T17:04:49.308Z,14.15
2022-08-17T17:07:50.432Z,13.23
2022-08-17T17:10:22.373Z,13.13
2022-08-17T17:13:02.507Z,12.05
2022-08-17T17:15:45.342Z,12.80
2022-08-17T17:18:14.856Z,14.25
2022-08-17T17:20:53.599Z,14.35
2022-08-17T17:23:44.713Z,14.32
2022-08-17T17:26:29.328Z,15.57
2022-08-17T17:29:18.462Z,14.50
2022-08-17T17:32:04.578Z,14.05
2022-08-17T17:34:34.668Z,15.95
2022-08-17T17:37:07.293Z,17.13
2022-08-17T17:39:37.088Z,16.13
2022-08-17T17:42:08.789Z,17.67
2022-08-17T17:44:42.467Z,15.25
2022-08-17T17:47:12.288Z,12.98
2022-08-17T17:49:46.751Z,14.00
2022-08-17T17:52:36.389Z,10.98
2022-08-17T17:55:24.388Z,15.35
2022-08-17T17:58:01.151Z,15.88
2022-08-17T18:00:44.600Z,17.33
2022-08-17T18:03:46.852Z,15.23
2022-08-17T18:06:20.002Z,13.52
2022-08-17T18:08:55.257Z,14.68
2022-08-17T18:11:35.125Z,16.73
2022-08-17T18:14:17.299Z,18.45
2022-08-17T18:16:46.475Z,18.77
2022-08-17T18:19:20.055Z,19.23
2022-08-17T18:22:14.450Z,19.00
2022-08-17T18:24:44.649Z,18.40
2022-08-17T18:27:49.641Z,18.17
2022-08-17T18:30:20.054Z,18.70
2022-08-17T18:32:47.272Z,22.10
2022-08-17T18:35:14.415Z,24.95
2022-08-17T18:37:50.568Z,25.77
2022-08-17T18:40:17.900Z,27.48
2022-08-17T18:42:48.583Z,31.83
2022-08-17T18:45:51.195Z,35.03
2022-08-17T18:48:33.628Z,33.75
2022-08-17T18:51:42.169Z,35.88
2022-08-17T18:54:14.395Z,32.88
2022-08-17T18:56:56.599Z,33.03
2022-08-17T18:59:23.387Z,27.48
2022-08-17T19:02:27.331Z,25.15
2022-08-17T19:05:27.844Z,26.73
2022-08-17T19:08:13.783Z,28.67
2022-08-17T19:10:46.295Z,32.53
2022-08-17T19:13:37.445Z,34.45
2022-08-17T19:16:40.765Z,35.70
2022-08-17T19:19:17.504Z,34.55
2022-08-17T19:21:53.377Z,33.15
2022-08-17T19:24:26.576Z,29.00
2022-08-17T19:27:26.186Z,29.08
2022-08-17T19:30:08.532Z,25.20
2022-08-17T19:32:36.229Z,22.77
2022-08-17T19:35:06.237Z,19.05
2022-08-17T19:37:51.670Z,18.83
2022-08-17T19:40:55.273Z,19.20
2022-08-17T19:43:38.077Z,17.85
2022-08-17T19:46:26.082Z,18.63
2022-08-17T19:49:21.426Z,19.25
2022-08-17T19:52:06.793Z,18.63
2022-08-17T19:54:44.847Z,18.95
2022-08-17T19:57:37.040Z,20.17
2022-08-17T20:00:31.372Z,18.73
2022-08-17T20:03:16.760Z,18.38
2022-08-17T20:06:15.077Z,18.48
2022-08-17T20:08:49.825Z,19.45
2022-08-17T20:11:24.909Z,15.40
2022-08-17T20:14:09.797Z,9.25
2022-08-17T20:16:36.685Z,10.80
2022-08-17T20:19:11.572Z,13.30
2022-08-17T20:21:38.383Z,12.23
2022-08-17T20:24:17.409Z,15.98
2022-08-17T20:26:58.532Z,16.35
2022-08-17T20:30:00.720Z,17.83
2022-08-17T20:32:30.261Z,16.63
2022-08-17T20:35:19.789Z,18.52
2022-08-17T20:37:57.531Z,18.55
2022-08-17T20:40:28.813Z,17.65
2022-08-17T20:42:57.329Z,18.02
2022-08-17T20:45:24.420Z,17.70
2022-08-17T20:48:23.987Z,18.90
2022-08-17T20:50:51.597Z,17.75
2022-08-17T20:53:53.685Z,16.48
2022-08-17T20:56:46.557Z,16.63
2022-08-17T20:59:30.513Z,17.80
2022-08-17T21:02:12.467Z,16.95
2022-08-17T21:05:00.709Z,18.08
2022-08-17T21:07:43.000Z,19.60
2022-08-17T21:10:25.882Z,19.60
2022-08-17T21:13:04.745Z,19.08
2022-08-17T21:15:50.071Z,16.98
2022-08-17T21:18:31.350Z,18.98
2022-08-17T21:21:17.415Z,20.23
2022-08-17T21:24:06.193Z,19.02
2022-08-17T21:26:59.954Z,19.95
2022-08-17T21:29:30.831Z,20.20
2022-08-17T21:32:00.597Z,19.55
2022-08-17T21:34:39.517Z,17.60
2022-08-17T21:37:26.118Z,18.25
2022-08-17T21:39:56.383Z,21.13
2022-08-17T21:42:29.669Z,19.25
2022-08-17T21:45:07.981Z,19.52
2022-08-17T21:47:35.098Z,18.75
2022-08-17T21:50:24.146Z,18.48
2022-08-17T21:52:54.181Z,18.05
2022-08-17T21:55:28.339Z,18.00
2022-08-17T21:58:14.655Z,16.75
2022-08-17T22:00:45.951Z,17.48
2022-08-17T22:03:24.152Z,17.02
2022-08-17T22:05:51.651Z,17.10
2022-08-17T22:08:23.191Z,19.27
2022-08-17T22:10:51.764Z,17.48
2022-08-17T22:13:18.577Z,17.55
2022-08-17T22:15:49.668Z,18.92
2022-08-17T22:18:28.921Z,17.17
2022-08-17T22:20:58.097Z,18.33
2022-08-17T22:24:06.369Z,18.77
2022-08-17T22:27:07.024Z,18.80
2022-08-17T22:29:42.883Z,16.27
2022-08-17T22:32:10.309Z,19.38
2022-08-17T22:34:38.571Z,18.42
2022-08-17T22:37:27.962Z,18.08
2022-08-17T22:39:59.067Z,18.70
2022-08-17T22:42:26.197Z,18.40
2022-08-17T22:44:53.956Z,16.80
2022-08-17T22:47:39.545Z,17.65
2022-08-17T22:50:14.899Z,16.35
2022-08-17T22:55:51.977Z,15.55
2022-08-17T22:58:41.891Z,14.88
2022-08-17T23:01:32.575Z,14.30
2022-08-17T23:04:02.078Z,14.82
2022-08-17T23:06:29.922Z,15.02
2022-08-17T23:08:57.770Z,15.38
2022-08-17T23:11:42.935Z,14.80
2022-08-17T23:14:15.986Z,12.93
2022-08-17T23:16:43.109Z,15.18
2022-08-17T23:19:11.545Z,14.70
2022-08-17T23:21:38.809Z,14.43
2022-08-17T23:24:07.612Z,14.88
2022-08-17T23:26:38.150Z,16.05
2022-08-17T23:29:06.766Z,16.58
2022-08-17T23:31:36.236Z,15.68
2022-08-17T23:34:11.622Z,15.95
2022-08-17T23:39:06.939Z,12.15
2022-08-17T23:41:38.650Z,12.32
2022-08-17T23:44:06.505Z,13.02
2022-08-17T23:46:34.818Z,12.73
2022-08-17T23:49:01.875Z,13.68
2022-08-17T23:51:34.691Z,12.57
2022-08-17T23:54:12.585Z,11.30
2022-08-17T23:56:46.800Z,10.57
2022-08-17T23:59:19.688Z,10.80
